sensor_id;sensor_type;location;lat;lon;timestamp;temperature;humidity
56044;DHT22;41912;51.022;3.664;2023-12-20T00:00:59;8.00;99.90
56044;DHT22;41912;51.022;3.664;2023-12-20T00:03:24;8.00;99.90
56044;DHT22;41912;51.022;3.664;2023-12-20T00:05:50;8.00;99.90
56044;DHT22;41912;51.022;3.664;2023-12-20T00:08:16;8.00;99.90
56044;DHT22;41912;51.022;3.664;2023-12-20T00:10:43;8.00;99.90
56044;DHT22;41912;51.022;3.664;2023-12-20T00:13:09;8.00;99.90
56044;DHT22;41912;51.022;3.664;2023-12-20T00:15:35;8.00;99.90
56044;DHT22;41912;51.022;3.664;2023-12-20T00:18:01;8.00;99.90
56044;DHT22;41912;51.022;3.664;2023-12-20T00:20:27;7.90;99.90
56044;DHT22;41912;51.022;3.664;2023-12-20T00:22:54;7.90;99.90
56044;DHT22;41912;51.022;3.664;2023-12-20T00:25:20;7.90;99.90
56044;DHT22;41912;51.022;3.664;2023-12-20T00:27:45;7.90;99.90
56044;DHT22;41912;51.022;3.664;2023-12-20T00:30:11;7.90;99.90
56044;DHT22;41912;51.022;3.664;2023-12-20T00:32:37;7.90;99.90
56044;DHT22;41912;51.022;3.664;2023-12-20T00:35:02;7.90;99.90
56044;DHT22;41912;51.022;3.664;2023-12-20T00:37:28;7.90;99.90
56044;DHT22;41912;51.022;3.664;2023-12-20T00:39:54;7.90;99.90
56044;DHT22;41912;51.022;3.664;2023-12-20T00:42:19;7.90;99.90
56044;DHT22;41912;51.022;3.664;2023-12-20T00:44:45;7.90;99.90
56044;DHT22;41912;51.022;3.664;2023-12-20T00:47:11;7.90;99.90
56044;DHT22;41912;51.022;3.664;2023-12-20T00:49:36;7.90;99.90
56044;DHT22;41912;51.022;3.664;2023-12-20T00:52:02;7.90;99.90
56044;DHT22;41912;51.022;3.664;2023-12-20T00:54:37;7.90;99.90
56044;DHT22;41912;51.022;3.664;2023-12-20T00:57:02;7.90;99.90
56044;DHT22;41912;51.022;3.664;2023-12-20T00:59:28;7.90;99.90
56044;DHT22;41912;51.022;3.664;2023-12-20T01:01:53;7.90;99.90
56044;DHT22;41912;51.022;3.664;2023-12-20T01:04:19;7.90;99.90
56044;DHT22;41912;51.022;3.664;2023-12-20T01:06:44;7.90;99.90
56044;DHT22;41912;51.022;3.664;2023-12-20T01:09:10;7.90;99.90
56044;DHT22;41912;51.022;3.664;2023-12-20T01:11:36;7.90;99.90
56044;DHT22;41912;51.022;3.664;2023-12-20T01:14:01;7.90;99.90
56044;DHT22;41912;51.022;3.664;2023-12-20T01:16:27;7.80;99.90
56044;DHT22;41912;51.022;3.664;2023-12-20T01:18:52;7.80;99.90
56044;DHT22;41912;51.022;3.664;2023-12-20T01:21:18;7.90;99.90
56044;DHT22;41912;51.022;3.664;2023-12-20T01:23:44;7.80;99.90
56044;DHT22;41912;51.022;3.664;2023-12-20T01:26:09;7.90;99.90
56044;DHT22;41912;51.022;3.664;2023-12-20T01:28:35;7.80;99.90
56044;DHT22;41912;51.022;3.664;2023-12-20T01:31:00;7.90;99.90
56044;DHT22;41912;51.022;3.664;2023-12-20T01:33:26;7.90;99.90
56044;DHT22;41912;51.022;3.664;2023-12-20T01:35:52;8.00;99.90
56044;DHT22;41912;51.022;3.664;2023-12-20T01:38:17;7.90;99.90
56044;DHT22;41912;51.022;3.664;2023-12-20T01:40:45;7.90;99.90
56044;DHT22;41912;51.022;3.664;2023-12-20T01:43:11;7.90;99.90
56044;DHT22;41912;51.022;3.664;2023-12-20T01:45:38;7.90;99.90
56044;DHT22;41912;51.022;3.664;2023-12-20T01:48:05;7.90;99.90
56044;DHT22;41912;51.022;3.664;2023-12-20T01:50:31;7.80;99.90
56044;DHT22;41912;51.022;3.664;2023-12-20T01:52:59;7.80;99.90
56044;DHT22;41912;51.022;3.664;2023-12-20T01:55:27;7.90;99.90
56044;DHT22;41912;51.022;3.664;2023-12-20T01:57:55;7.90;99.90
56044;DHT22;41912;51.022;3.664;2023-12-20T02:00:22;7.90;99.90
56044;DHT22;41912;51.022;3.664;2023-12-20T02:02:53;7.90;99.90
56044;DHT22;41912;51.022;3.664;2023-12-20T02:05:21;7.90;99.90
56044;DHT22;41912;51.022;3.664;2023-12-20T02:07:47;7.90;99.90
56044;DHT22;41912;51.022;3.664;2023-12-20T02:10:13;7.80;99.90
56044;DHT22;41912;51.022;3.664;2023-12-20T02:12:39;7.90;99.90
56044;DHT22;41912;51.022;3.664;2023-12-20T02:15:05;7.90;99.90
56044;DHT22;41912;51.022;3.664;2023-12-20T02:17:32;7.90;99.90
56044;DHT22;41912;51.022;3.664;2023-12-20T02:19:58;7.90;99.90
56044;DHT22;41912;51.022;3.664;2023-12-20T02:22:23;7.90;99.90
56044;DHT22;41912;51.022;3.664;2023-12-20T02:24:49;7.90;99.90
56044;DHT22;41912;51.022;3.664;2023-12-20T02:27:15;7.90;99.90
56044;DHT22;41912;51.022;3.664;2023-12-20T02:29:43;7.90;99.90
56044;DHT22;41912;51.022;3.664;2023-12-20T02:32:08;7.90;99.90
56044;DHT22;41912;51.022;3.664;2023-12-20T02:34:34;8.00;99.90
56044;DHT22;41912;51.022;3.664;2023-12-20T02:37:00;7.90;99.90
56044;DHT22;41912;51.022;3.664;2023-12-20T02:39:25;7.90;99.90
56044;DHT22;41912;51.022;3.664;2023-12-20T02:41:51;8.00;99.90
56044;DHT22;41912;51.022;3.664;2023-12-20T02:44:17;8.00;99.90
56044;DHT22;41912;51.022;3.664;2023-12-20T02:46:42;8.00;99.90
56044;DHT22;41912;51.022;3.664;2023-12-20T02:49:08;8.00;99.90
56044;DHT22;41912;51.022;3.664;2023-12-20T02:51:34;8.00;99.90
56044;DHT22;41912;51.022;3.664;2023-12-20T02:53:59;8.00;99.90
56044;DHT22;41912;51.022;3.664;2023-12-20T02:56:25;8.10;99.90
56044;DHT22;41912;51.022;3.664;2023-12-20T02:58:50;8.00;99.90
56044;DHT22;41912;51.022;3.664;2023-12-20T03:01:16;8.10;99.90
56044;DHT22;41912;51.022;3.664;2023-12-20T03:03:42;8.10;99.90
56044;DHT22;41912;51.022;3.664;2023-12-20T03:06:07;8.10;99.90
56044;DHT22;41912;51.022;3.664;2023-12-20T03:08:33;8.10;99.90
56044;DHT22;41912;51.022;3.664;2023-12-20T03:10:59;8.10;99.90
56044;DHT22;41912;51.022;3.664;2023-12-20T03:13:25;8.10;99.90
56044;DHT22;41912;51.022;3.664;2023-12-20T03:15:50;8.10;99.90
56044;DHT22;41912;51.022;3.664;2023-12-20T03:18:16;8.10;99.90
56044;DHT22;41912;51.022;3.664;2023-12-20T03:20:42;8.10;99.90
56044;DHT22;41912;51.022;3.664;2023-12-20T03:23:08;8.10;99.90
56044;DHT22;41912;51.022;3.664;2023-12-20T03:25:33;8.00;99.90
56044;DHT22;41912;51.022;3.664;2023-12-20T03:27:59;8.00;99.90
56044;DHT22;41912;51.022;3.664;2023-12-20T03:30:24;8.10;99.90
56044;DHT22;41912;51.022;3.664;2023-12-20T03:32:50;8.00;99.90
56044;DHT22;41912;51.022;3.664;2023-12-20T03:35:16;8.00;99.90
56044;DHT22;41912;51.022;3.664;2023-12-20T03:37:41;8.00;99.90
56044;DHT22;41912;51.022;3.664;2023-12-20T03:40:07;8.00;99.90
56044;DHT22;41912;51.022;3.664;2023-12-20T03:42:33;8.00;99.90
56044;DHT22;41912;51.022;3.664;2023-12-20T03:44:58;7.90;99.90
56044;DHT22;41912;51.022;3.664;2023-12-20T03:47:24;7.90;99.90
56044;DHT22;41912;51.022;3.664;2023-12-20T03:49:49;7.90;99.90
56044;DHT22;41912;51.022;3.664;2023-12-20T03:52:15;7.90;99.90
56044;DHT22;41912;51.022;3.664;2023-12-20T03:54:41;7.90;99.90
56044;DHT22;41912;51.022;3.664;2023-12-20T03:57:09;7.90;99.90
56044;DHT22;41912;51.022;3.664;2023-12-20T03:59:36;7.90;99.90
56044;DHT22;41912;51.022;3.664;2023-12-20T04:02:01;7.90;99.90
56044;DHT22;41912;51.022;3.664;2023-12-20T04:04:27;7.90;99.90
56044;DHT22;41912;51.022;3.664;2023-12-20T04:06:53;7.90;99.90
56044;DHT22;41912;51.022;3.664;2023-12-20T04:09:19;7.90;99.90
56044;DHT22;41912;51.022;3.664;2023-12-20T04:11:44;7.90;99.90
56044;DHT22;41912;51.022;3.664;2023-12-20T04:14:10;7.90;99.90
56044;DHT22;41912;51.022;3.664;2023-12-20T04:16:35;7.90;99.90
56044;DHT22;41912;51.022;3.664;2023-12-20T04:19:01;7.90;99.90
56044;DHT22;41912;51.022;3.664;2023-12-20T04:21:27;7.80;99.90
56044;DHT22;41912;51.022;3.664;2023-12-20T04:23:53;7.80;99.90
56044;DHT22;41912;51.022;3.664;2023-12-20T04:26:18;7.80;99.90
56044;DHT22;41912;51.022;3.664;2023-12-20T04:28:44;7.80;99.90
56044;DHT22;41912;51.022;3.664;2023-12-20T04:31:10;7.80;99.90
56044;DHT22;41912;51.022;3.664;2023-12-20T04:33:35;7.80;99.90
56044;DHT22;41912;51.022;3.664;2023-12-20T04:36:01;7.70;99.90
56044;DHT22;41912;51.022;3.664;2023-12-20T04:38:26;7.70;99.90
56044;DHT22;41912;51.022;3.664;2023-12-20T04:40:52;7.70;99.90
56044;DHT22;41912;51.022;3.664;2023-12-20T04:43:18;7.70;99.90
56044;DHT22;41912;51.022;3.664;2023-12-20T04:45:43;7.60;99.90
56044;DHT22;41912;51.022;3.664;2023-12-20T04:48:09;7.70;99.90
56044;DHT22;41912;51.022;3.664;2023-12-20T04:50:34;7.60;99.90
56044;DHT22;41912;51.022;3.664;2023-12-20T04:53:00;7.50;99.90
56044;DHT22;41912;51.022;3.664;2023-12-20T04:55:26;7.60;99.90
56044;DHT22;41912;51.022;3.664;2023-12-20T04:57:51;7.50;99.90
56044;DHT22;41912;51.022;3.664;2023-12-20T05:00:17;7.50;99.90
56044;DHT22;41912;51.022;3.664;2023-12-20T05:02:43;7.50;99.90
56044;DHT22;41912;51.022;3.664;2023-12-20T05:05:09;7.50;99.90
56044;DHT22;41912;51.022;3.664;2023-12-20T05:07:34;7.40;99.90
56044;DHT22;41912;51.022;3.664;2023-12-20T05:10:00;7.40;99.90
56044;DHT22;41912;51.022;3.664;2023-12-20T05:12:26;7.40;99.90
56044;DHT22;41912;51.022;3.664;2023-12-20T05:14:54;7.40;99.90
56044;DHT22;41912;51.022;3.664;2023-12-20T05:17:20;7.40;99.90
56044;DHT22;41912;51.022;3.664;2023-12-20T05:19:45;7.40;99.90
56044;DHT22;41912;51.022;3.664;2023-12-20T05:22:11;7.40;99.90
56044;DHT22;41912;51.022;3.664;2023-12-20T05:24:37;7.30;99.90
56044;DHT22;41912;51.022;3.664;2023-12-20T05:27:03;7.30;99.90
56044;DHT22;41912;51.022;3.664;2023-12-20T05:29:28;7.30;99.90
56044;DHT22;41912;51.022;3.664;2023-12-20T05:31:54;7.30;99.90
56044;DHT22;41912;51.022;3.664;2023-12-20T05:34:19;7.30;99.90
56044;DHT22;41912;51.022;3.664;2023-12-20T05:36:46;7.30;99.90
56044;DHT22;41912;51.022;3.664;2023-12-20T05:39:11;7.40;99.90
56044;DHT22;41912;51.022;3.664;2023-12-20T05:41:37;7.30;99.90
56044;DHT22;41912;51.022;3.664;2023-12-20T05:44:02;7.40;99.90
56044;DHT22;41912;51.022;3.664;2023-12-20T05:46:28;7.30;99.90
56044;DHT22;41912;51.022;3.664;2023-12-20T05:48:54;7.40;99.90
56044;DHT22;41912;51.022;3.664;2023-12-20T05:51:19;7.40;99.90
56044;DHT22;41912;51.022;3.664;2023-12-20T05:53:45;7.40;99.90
56044;DHT22;41912;51.022;3.664;2023-12-20T05:56:11;7.40;99.90
56044;DHT22;41912;51.022;3.664;2023-12-20T05:58:38;7.40;99.90
56044;DHT22;41912;51.022;3.664;2023-12-20T06:01:04;7.40;99.90
56044;DHT22;41912;51.022;3.664;2023-12-20T06:03:30;7.40;99.90
56044;DHT22;41912;51.022;3.664;2023-12-20T06:05:56;7.30;99.90
56044;DHT22;41912;51.022;3.664;2023-12-20T06:08:22;7.40;99.90
56044;DHT22;41912;51.022;3.664;2023-12-20T06:10:48;7.30;99.90
56044;DHT22;41912;51.022;3.664;2023-12-20T06:13:14;7.40;99.90
56044;DHT22;41912;51.022;3.664;2023-12-20T06:15:40;7.30;99.90
56044;DHT22;41912;51.022;3.664;2023-12-20T06:18:06;7.30;99.90
56044;DHT22;41912;51.022;3.664;2023-12-20T06:20:32;7.30;99.90
56044;DHT22;41912;51.022;3.664;2023-12-20T06:22:58;7.30;99.90
56044;DHT22;41912;51.022;3.664;2023-12-20T06:25:23;7.40;99.90
56044;DHT22;41912;51.022;3.664;2023-12-20T06:27:49;7.30;99.90
56044;DHT22;41912;51.022;3.664;2023-12-20T06:30:16;7.30;99.90
56044;DHT22;41912;51.022;3.664;2023-12-20T06:32:42;7.30;99.90
56044;DHT22;41912;51.022;3.664;2023-12-20T06:35:08;7.30;99.90
56044;DHT22;41912;51.022;3.664;2023-12-20T06:37:34;7.20;99.90
56044;DHT22;41912;51.022;3.664;2023-12-20T06:40:01;7.30;99.90
56044;DHT22;41912;51.022;3.664;2023-12-20T06:42:27;7.30;99.90
56044;DHT22;41912;51.022;3.664;2023-12-20T06:44:52;7.20;99.90
56044;DHT22;41912;51.022;3.664;2023-12-20T06:47:18;7.30;99.90
56044;DHT22;41912;51.022;3.664;2023-12-20T06:49:44;7.20;99.90
56044;DHT22;41912;51.022;3.664;2023-12-20T06:52:09;7.20;99.90
56044;DHT22;41912;51.022;3.664;2023-12-20T06:54:35;7.10;99.90
56044;DHT22;41912;51.022;3.664;2023-12-20T06:57:01;7.20;99.90
56044;DHT22;41912;51.022;3.664;2023-12-20T06:59:29;7.10;99.90
56044;DHT22;41912;51.022;3.664;2023-12-20T07:01:54;7.10;99.90
56044;DHT22;41912;51.022;3.664;2023-12-20T07:04:20;7.10;99.90
56044;DHT22;41912;51.022;3.664;2023-12-20T07:06:48;7.10;99.90
56044;DHT22;41912;51.022;3.664;2023-12-20T07:09:16;7.10;99.90
56044;DHT22;41912;51.022;3.664;2023-12-20T07:11:42;7.20;99.90
56044;DHT22;41912;51.022;3.664;2023-12-20T07:14:07;7.10;99.90
56044;DHT22;41912;51.022;3.664;2023-12-20T07:16:33;7.20;99.90
56044;DHT22;41912;51.022;3.664;2023-12-20T07:19:00;7.20;99.90
56044;DHT22;41912;51.022;3.664;2023-12-20T07:21:25;7.10;99.90
56044;DHT22;41912;51.022;3.664;2023-12-20T07:23:51;7.10;99.90
56044;DHT22;41912;51.022;3.664;2023-12-20T07:26:17;7.10;99.90
56044;DHT22;41912;51.022;3.664;2023-12-20T07:28:43;7.10;99.90
56044;DHT22;41912;51.022;3.664;2023-12-20T07:31:08;7.20;99.90
56044;DHT22;41912;51.022;3.664;2023-12-20T07:33:34;7.10;99.90
56044;DHT22;41912;51.022;3.664;2023-12-20T07:36:00;7.10;99.90
56044;DHT22;41912;51.022;3.664;2023-12-20T07:38:26;7.10;99.90
56044;DHT22;41912;51.022;3.664;2023-12-20T07:40:51;7.10;99.90
56044;DHT22;41912;51.022;3.664;2023-12-20T07:43:17;7.00;99.90
56044;DHT22;41912;51.022;3.664;2023-12-20T07:45:43;7.10;99.90
56044;DHT22;41912;51.022;3.664;2023-12-20T07:48:08;7.10;99.90
56044;DHT22;41912;51.022;3.664;2023-12-20T07:50:34;7.10;99.90
56044;DHT22;41912;51.022;3.664;2023-12-20T07:53:00;7.10;99.90
56044;DHT22;41912;51.022;3.664;2023-12-20T07:55:26;7.10;99.90
56044;DHT22;41912;51.022;3.664;2023-12-20T07:57:52;7.10;99.90
56044;DHT22;41912;51.022;3.664;2023-12-20T08:00:18;7.10;99.90
56044;DHT22;41912;51.022;3.664;2023-12-20T08:02:44;7.10;99.90
56044;DHT22;41912;51.022;3.664;2023-12-20T08:05:10;7.10;99.90
56044;DHT22;41912;51.022;3.664;2023-12-20T08:07:36;7.10;99.90
56044;DHT22;41912;51.022;3.664;2023-12-20T08:10:02;7.10;99.90
56044;DHT22;41912;51.022;3.664;2023-12-20T08:12:27;7.00;99.90
56044;DHT22;41912;51.022;3.664;2023-12-20T08:14:54;7.00;99.90
56044;DHT22;41912;51.022;3.664;2023-12-20T08:17:20;7.00;99.90
56044;DHT22;41912;51.022;3.664;2023-12-20T08:19:45;6.90;99.90
56044;DHT22;41912;51.022;3.664;2023-12-20T08:22:11;6.90;99.90
56044;DHT22;41912;51.022;3.664;2023-12-20T08:24:37;6.90;99.90
56044;DHT22;41912;51.022;3.664;2023-12-20T08:27:04;6.90;99.90
56044;DHT22;41912;51.022;3.664;2023-12-20T08:29:29;6.80;99.90
56044;DHT22;41912;51.022;3.664;2023-12-20T08:31:56;6.80;99.90
56044;DHT22;41912;51.022;3.664;2023-12-20T08:34:22;6.80;99.90
56044;DHT22;41912;51.022;3.664;2023-12-20T08:36:50;6.80;99.90
56044;DHT22;41912;51.022;3.664;2023-12-20T08:39:15;6.70;99.90
56044;DHT22;41912;51.022;3.664;2023-12-20T08:41:41;6.70;99.90
56044;DHT22;41912;51.022;3.664;2023-12-20T08:44:06;6.80;99.90
56044;DHT22;41912;51.022;3.664;2023-12-20T08:46:32;6.80;99.90
56044;DHT22;41912;51.022;3.664;2023-12-20T08:48:58;6.80;99.90
56044;DHT22;41912;51.022;3.664;2023-12-20T08:51:23;6.70;99.90
56044;DHT22;41912;51.022;3.664;2023-12-20T08:53:51;6.70;99.90
56044;DHT22;41912;51.022;3.664;2023-12-20T08:56:17;6.80;99.90
56044;DHT22;41912;51.022;3.664;2023-12-20T08:58:44;6.80;99.90
56044;DHT22;41912;51.022;3.664;2023-12-20T09:01:09;6.90;99.90
56044;DHT22;41912;51.022;3.664;2023-12-20T09:03:35;6.90;99.90
56044;DHT22;41912;51.022;3.664;2023-12-20T09:06:01;7.00;99.90
56044;DHT22;41912;51.022;3.664;2023-12-20T09:08:26;7.10;99.90
56044;DHT22;41912;51.022;3.664;2023-12-20T09:10:52;7.10;99.90
56044;DHT22;41912;51.022;3.664;2023-12-20T09:13:18;7.20;99.90
56044;DHT22;41912;51.022;3.664;2023-12-20T09:15:43;7.30;99.90
56044;DHT22;41912;51.022;3.664;2023-12-20T09:18:09;7.30;99.90
56044;DHT22;41912;51.022;3.664;2023-12-20T09:20:35;7.30;99.90
56044;DHT22;41912;51.022;3.664;2023-12-20T09:23:01;7.30;99.90
56044;DHT22;41912;51.022;3.664;2023-12-20T09:25:26;7.40;99.90
56044;DHT22;41912;51.022;3.664;2023-12-20T09:27:52;7.40;99.90
56044;DHT22;41912;51.022;3.664;2023-12-20T09:30:18;7.40;99.90
56044;DHT22;41912;51.022;3.664;2023-12-20T09:32:45;7.40;99.90
56044;DHT22;41912;51.022;3.664;2023-12-20T09:35:11;7.40;99.90
56044;DHT22;41912;51.022;3.664;2023-12-20T09:37:36;7.50;99.90
56044;DHT22;41912;51.022;3.664;2023-12-20T09:40:03;7.50;99.90
56044;DHT22;41912;51.022;3.664;2023-12-20T09:45:28;7.70;99.90
56044;DHT22;41912;51.022;3.664;2023-12-20T09:47:56;7.70;99.90
56044;DHT22;41912;51.022;3.664;2023-12-20T09:50:23;7.80;99.90
56044;DHT22;41912;51.022;3.664;2023-12-20T09:52:50;7.80;99.90
56044;DHT22;41912;51.022;3.664;2023-12-20T09:55:20;7.80;99.90
56044;DHT22;41912;51.022;3.664;2023-12-20T09:57:47;7.90;99.90
56044;DHT22;41912;51.022;3.664;2023-12-20T10:00:13;7.90;99.90
56044;DHT22;41912;51.022;3.664;2023-12-20T10:02:48;7.90;99.90
56044;DHT22;41912;51.022;3.664;2023-12-20T10:05:17;8.00;99.90
56044;DHT22;41912;51.022;3.664;2023-12-20T10:07:46;8.00;99.90
56044;DHT22;41912;51.022;3.664;2023-12-20T10:10:13;8.00;99.90
56044;DHT22;41912;51.022;3.664;2023-12-20T10:12:39;8.00;99.90
56044;DHT22;41912;51.022;3.664;2023-12-20T10:15:05;8.10;99.90
56044;DHT22;41912;51.022;3.664;2023-12-20T10:17:31;8.10;99.90
56044;DHT22;41912;51.022;3.664;2023-12-20T10:19:57;8.10;99.90
56044;DHT22;41912;51.022;3.664;2023-12-20T10:22:24;8.20;99.90
56044;DHT22;41912;51.022;3.664;2023-12-20T10:24:49;8.20;99.90
56044;DHT22;41912;51.022;3.664;2023-12-20T10:27:18;8.20;99.90
56044;DHT22;41912;51.022;3.664;2023-12-20T10:29:45;8.30;99.90
56044;DHT22;41912;51.022;3.664;2023-12-20T10:34:52;8.30;99.90
56044;DHT22;41912;51.022;3.664;2023-12-20T10:37:18;8.30;99.90
56044;DHT22;41912;51.022;3.664;2023-12-20T10:39:43;8.30;99.90
56044;DHT22;41912;51.022;3.664;2023-12-20T10:42:13;8.40;99.90
56044;DHT22;41912;51.022;3.664;2023-12-20T10:44:40;8.40;99.90
56044;DHT22;41912;51.022;3.664;2023-12-20T10:47:06;8.50;99.90
56044;DHT22;41912;51.022;3.664;2023-12-20T10:49:36;8.50;99.90
56044;DHT22;41912;51.022;3.664;2023-12-20T10:52:02;8.50;99.90
56044;DHT22;41912;51.022;3.664;2023-12-20T10:54:29;8.50;99.90
56044;DHT22;41912;51.022;3.664;2023-12-20T10:56:57;8.60;99.90
56044;DHT22;41912;51.022;3.664;2023-12-20T10:59:23;8.60;99.90
56044;DHT22;41912;51.022;3.664;2023-12-20T11:01:50;8.60;99.90
56044;DHT22;41912;51.022;3.664;2023-12-20T11:04:23;8.60;99.90
56044;DHT22;41912;51.022;3.664;2023-12-20T11:07:17;8.70;99.90
56044;DHT22;41912;51.022;3.664;2023-12-20T11:09:54;8.70;99.90
56044;DHT22;41912;51.022;3.664;2023-12-20T11:12:35;8.70;99.90
56044;DHT22;41912;51.022;3.664;2023-12-20T11:15:03;8.70;99.90
56044;DHT22;41912;51.022;3.664;2023-12-20T11:17:31;8.80;99.90
56044;DHT22;41912;51.022;3.664;2023-12-20T11:22:26;8.90;99.90
56044;DHT22;41912;51.022;3.664;2023-12-20T11:24:53;9.00;99.90
56044;DHT22;41912;51.022;3.664;2023-12-20T11:27:21;9.00;99.90
56044;DHT22;41912;51.022;3.664;2023-12-20T11:29:56;9.00;99.90
56044;DHT22;41912;51.022;3.664;2023-12-20T11:37:35;9.10;99.90
56044;DHT22;41912;51.022;3.664;2023-12-20T11:40:07;9.10;99.90
56044;DHT22;41912;51.022;3.664;2023-12-20T11:42:40;9.20;99.90
56044;DHT22;41912;51.022;3.664;2023-12-20T11:45:09;9.20;99.90
56044;DHT22;41912;51.022;3.664;2023-12-20T11:47:35;9.20;99.90
56044;DHT22;41912;51.022;3.664;2023-12-20T11:50:01;9.20;99.90
56044;DHT22;41912;51.022;3.664;2023-12-20T11:52:30;9.30;99.90
56044;DHT22;41912;51.022;3.664;2023-12-20T11:54:57;9.40;99.90
56044;DHT22;41912;51.022;3.664;2023-12-20T11:57:23;9.30;99.90
56044;DHT22;41912;51.022;3.664;2023-12-20T11:59:48;9.30;99.90
56044;DHT22;41912;51.022;3.664;2023-12-20T12:02:14;9.40;99.90
56044;DHT22;41912;51.022;3.664;2023-12-20T12:04:43;9.40;99.90
56044;DHT22;41912;51.022;3.664;2023-12-20T12:07:09;9.40;99.90
56044;DHT22;41912;51.022;3.664;2023-12-20T12:09:35;9.40;99.90
56044;DHT22;41912;51.022;3.664;2023-12-20T12:12:01;9.50;99.90
56044;DHT22;41912;51.022;3.664;2023-12-20T12:14:26;9.40;99.90
56044;DHT22;41912;51.022;3.664;2023-12-20T12:16:52;9.40;99.90
56044;DHT22;41912;51.022;3.664;2023-12-20T12:19:22;9.40;99.90
56044;DHT22;41912;51.022;3.664;2023-12-20T12:22:11;9.50;99.90
56044;DHT22;41912;51.022;3.664;2023-12-20T12:24:46;9.50;99.90
56044;DHT22;41912;51.022;3.664;2023-12-20T12:27:13;9.50;99.90
56044;DHT22;41912;51.022;3.664;2023-12-20T12:29:39;9.50;99.90
56044;DHT22;41912;51.022;3.664;2023-12-20T12:32:06;9.50;99.90
56044;DHT22;41912;51.022;3.664;2023-12-20T12:34:36;9.60;99.90
56044;DHT22;41912;51.022;3.664;2023-12-20T12:37:05;9.60;99.90
56044;DHT22;41912;51.022;3.664;2023-12-20T12:39:30;9.70;99.90
56044;DHT22;41912;51.022;3.664;2023-12-20T12:41:56;9.70;99.90
56044;DHT22;41912;51.022;3.664;2023-12-20T12:44:22;9.70;99.90
56044;DHT22;41912;51.022;3.664;2023-12-20T12:46:51;9.80;99.90
56044;DHT22;41912;51.022;3.664;2023-12-20T12:49:19;9.80;99.90
56044;DHT22;41912;51.022;3.664;2023-12-20T12:51:45;9.90;99.90
56044;DHT22;41912;51.022;3.664;2023-12-20T12:54:12;10.00;99.90
56044;DHT22;41912;51.022;3.664;2023-12-20T12:56:38;10.00;99.90
56044;DHT22;41912;51.022;3.664;2023-12-20T12:59:04;10.00;99.90
56044;DHT22;41912;51.022;3.664;2023-12-20T13:01:31;10.10;99.90
56044;DHT22;41912;51.022;3.664;2023-12-20T13:03:56;10.10;99.90
56044;DHT22;41912;51.022;3.664;2023-12-20T13:06:22;10.10;99.90
56044;DHT22;41912;51.022;3.664;2023-12-20T13:08:48;10.20;99.90
56044;DHT22;41912;51.022;3.664;2023-12-20T13:11:14;10.20;99.90
56044;DHT22;41912;51.022;3.664;2023-12-20T13:13:39;10.20;99.90
56044;DHT22;41912;51.022;3.664;2023-12-20T13:16:05;10.20;99.90
56044;DHT22;41912;51.022;3.664;2023-12-20T13:18:31;10.20;99.90
56044;DHT22;41912;51.022;3.664;2023-12-20T13:20:56;10.20;99.90
56044;DHT22;41912;51.022;3.664;2023-12-20T13:23:22;10.20;99.90
56044;DHT22;41912;51.022;3.664;2023-12-20T13:25:48;10.20;99.90
56044;DHT22;41912;51.022;3.664;2023-12-20T13:28:13;10.30;99.90
56044;DHT22;41912;51.022;3.664;2023-12-20T13:30:39;10.30;99.90
56044;DHT22;41912;51.022;3.664;2023-12-20T13:33:05;10.30;99.90
56044;DHT22;41912;51.022;3.664;2023-12-20T13:35:32;10.30;99.90
56044;DHT22;41912;51.022;3.664;2023-12-20T13:37:58;10.30;99.90
56044;DHT22;41912;51.022;3.664;2023-12-20T13:40:24;10.30;99.90
56044;DHT22;41912;51.022;3.664;2023-12-20T13:42:50;10.30;99.90
56044;DHT22;41912;51.022;3.664;2023-12-20T13:45:16;10.30;99.90
56044;DHT22;41912;51.022;3.664;2023-12-20T13:47:41;10.40;99.90
56044;DHT22;41912;51.022;3.664;2023-12-20T13:50:07;10.30;99.90
56044;DHT22;41912;51.022;3.664;2023-12-20T13:52:33;10.30;99.90
56044;DHT22;41912;51.022;3.664;2023-12-20T13:54:59;10.30;99.90
56044;DHT22;41912;51.022;3.664;2023-12-20T13:57:24;10.30;99.90
56044;DHT22;41912;51.022;3.664;2023-12-20T13:59:50;10.30;99.90
56044;DHT22;41912;51.022;3.664;2023-12-20T14:02:16;10.30;99.90
56044;DHT22;41912;51.022;3.664;2023-12-20T14:04:44;10.30;99.90
56044;DHT22;41912;51.022;3.664;2023-12-20T14:07:10;10.30;99.90
56044;DHT22;41912;51.022;3.664;2023-12-20T14:09:36;10.30;99.90
56044;DHT22;41912;51.022;3.664;2023-12-20T14:12:02;10.30;99.90
56044;DHT22;41912;51.022;3.664;2023-12-20T14:14:27;10.30;99.90
56044;DHT22;41912;51.022;3.664;2023-12-20T14:16:53;10.30;99.90
56044;DHT22;41912;51.022;3.664;2023-12-20T14:19:19;10.40;99.90
56044;DHT22;41912;51.022;3.664;2023-12-20T14:21:45;10.40;99.90
56044;DHT22;41912;51.022;3.664;2023-12-20T14:24:13;10.40;99.90
56044;DHT22;41912;51.022;3.664;2023-12-20T14:26:40;10.40;99.90
56044;DHT22;41912;51.022;3.664;2023-12-20T14:29:06;10.40;99.90
56044;DHT22;41912;51.022;3.664;2023-12-20T14:31:33;10.50;99.90
56044;DHT22;41912;51.022;3.664;2023-12-20T14:33:58;10.50;99.90
56044;DHT22;41912;51.022;3.664;2023-12-20T14:36:24;10.50;99.90
56044;DHT22;41912;51.022;3.664;2023-12-20T14:38:50;10.50;99.90
56044;DHT22;41912;51.022;3.664;2023-12-20T14:41:16;10.50;99.90
56044;DHT22;41912;51.022;3.664;2023-12-20T14:43:44;10.40;99.90
56044;DHT22;41912;51.022;3.664;2023-12-20T14:46:10;10.40;99.90
56044;DHT22;41912;51.022;3.664;2023-12-20T14:48:35;10.40;99.90
56044;DHT22;41912;51.022;3.664;2023-12-20T14:51:01;10.40;99.90
56044;DHT22;41912;51.022;3.664;2023-12-20T14:53:27;10.40;99.90
56044;DHT22;41912;51.022;3.664;2023-12-20T14:55:52;10.40;99.90
56044;DHT22;41912;51.022;3.664;2023-12-20T14:58:18;10.40;99.90
56044;DHT22;41912;51.022;3.664;2023-12-20T15:00:43;10.40;99.90
56044;DHT22;41912;51.022;3.664;2023-12-20T15:03:10;10.40;99.90
56044;DHT22;41912;51.022;3.664;2023-12-20T15:05:36;10.40;99.90
56044;DHT22;41912;51.022;3.664;2023-12-20T15:08:02;10.50;99.90
56044;DHT22;41912;51.022;3.664;2023-12-20T15:10:27;10.50;99.90
56044;DHT22;41912;51.022;3.664;2023-12-20T15:12:53;10.40;99.90
56044;DHT22;41912;51.022;3.664;2023-12-20T15:15:21;10.50;99.90
56044;DHT22;41912;51.022;3.664;2023-12-20T15:17:47;10.40;99.90
56044;DHT22;41912;51.022;3.664;2023-12-20T15:20:12;10.40;99.90
56044;DHT22;41912;51.022;3.664;2023-12-20T15:22:39;10.50;99.90
56044;DHT22;41912;51.022;3.664;2023-12-20T15:25:06;10.40;99.90
56044;DHT22;41912;51.022;3.664;2023-12-20T15:27:34;10.40;99.90
56044;DHT22;41912;51.022;3.664;2023-12-20T15:30:03;10.40;99.90
56044;DHT22;41912;51.022;3.664;2023-12-20T15:32:28;10.40;99.90
56044;DHT22;41912;51.022;3.664;2023-12-20T15:34:54;10.50;99.90
56044;DHT22;41912;51.022;3.664;2023-12-20T15:37:20;10.50;99.90
56044;DHT22;41912;51.022;3.664;2023-12-20T15:39:45;10.40;99.90
56044;DHT22;41912;51.022;3.664;2023-12-20T15:42:11;10.40;99.90
56044;DHT22;41912;51.022;3.664;2023-12-20T15:44:37;10.40;99.90
56044;DHT22;41912;51.022;3.664;2023-12-20T15:47:02;10.40;99.90
56044;DHT22;41912;51.022;3.664;2023-12-20T15:49:28;10.50;99.90